Time;durP1;ratioP1;P1;durP2;ratioP2;P2;SDS_P1;SDS_P2;PMS_P1;PMS_P2;Temp;Humidity;BMP_temperature;BMP_pressure;BME280_temperature;BME280_humidity;BME280_pressure;Samples;Min_cycle;Max_cycle;Signal;HPM_P1;HPM_P2
2022/09/12 00:00:31;;;;;;;14.40;12.90;;;14.30;99.90;;;;;;4988584;28;20050;-85
2022/09/12 00:02:58;;;;;;;12.82;11.52;;;14.30;99.90;;;;;;4983583;28;20485;-85
2022/09/12 00:05:24;;;;;;;14.20;12.75;;;14.30;99.90;;;;;;4988100;28;20364;-85
2022/09/12 00:07:49;;;;;;;15.73;13.07;;;14.30;99.90;;;;;;4987551;28;20050;-85
2022/09/12 00:10:15;;;;;;;12.40;11.10;;;14.30;99.90;;;;;;4972349;28;20047;-85
2022/09/12 00:12:40;;;;;;;11.93;10.27;;;14.20;99.90;;;;;;4988469;28;20038;-85
2022/09/12 00:15:07;;;;;;;12.50;10.07;;;14.20;99.90;;;;;;4970626;28;20077;-86
2022/09/12 00:17:37;;;;;;;11.70;9.57;;;14.10;99.90;;;;;;4969593;28;20042;-85
2022/09/12 00:20:06;;;;;;;11.77;10.40;;;14.10;99.90;;;;;;4988136;28;20108;-85
2022/09/12 00:22:32;;;;;;;13.23;11.63;;;14.10;99.90;;;;;;4986373;28;20062;-85
2022/09/12 00:24:57;;;;;;;12.60;11.27;;;14.10;99.90;;;;;;4987749;28;20047;-86
2022/09/12 00:27:23;;;;;;;13.88;12.45;;;14.10;99.90;;;;;;5076538;23;20062;-86
2022/09/12 00:29:48;;;;;;;13.05;11.65;;;14.00;99.90;;;;;;4985256;28;20078;-86
2022/09/12 00:32:14;;;;;;;13.80;12.27;;;14.00;99.90;;;;;;4989871;28;20397;-85
2022/09/12 00:34:39;;;;;;;14.52;12.15;;;14.00;99.90;;;;;;4989178;28;20035;-85
2022/09/12 00:37:05;;;;;;;16.85;12.93;;;14.00;99.90;;;;;;4984385;28;20042;-85
2022/09/12 00:39:31;;;;;;;14.65;11.88;;;14.00;99.90;;;;;;4982528;28;20049;-85
2022/09/12 00:41:56;;;;;;;13.77;12.38;;;13.90;99.90;;;;;;4987721;28;20071;-85
2022/09/12 00:44:22;;;;;;;15.95;12.38;;;13.90;99.90;;;;;;4969504;28;20103;-85
2022/09/12 00:46:50;;;;;;;12.98;11.48;;;13.90;99.90;;;;;;4968967;28;20146;-86
2022/09/12 00:49:31;;;;;;;13.63;11.82;;;13.80;99.90;;;;;;4982764;28;20046;-85
2022/09/12 00:52:15;;;;;;;15.30;12.88;;;13.80;99.90;;;;;;4981454;28;20085;-85
2022/09/12 00:54:47;;;;;;;14.10;12.03;;;13.80;99.90;;;;;;4979045;28;20101;-85
2022/09/12 00:57:16;;;;;;;11.48;9.57;;;13.80;99.90;;;;;;4960901;28;20054;-85
2022/09/12 00:59:49;;;;;;;15.25;11.95;;;13.70;99.90;;;;;;4986953;28;20398;-86
2022/09/12 01:02:15;;;;;;;12.65;10.55;;;13.70;99.90;;;;;;4980813;28;20054;-85
2022/09/12 01:04:43;;;;;;;10.43;9.35;;;13.70;99.90;;;;;;4986973;28;20038;-85
2022/09/12 01:07:09;;;;;;;11.35;10.25;;;13.70;99.90;;;;;;4988638;28;20050;-85
2022/09/12 01:09:36;;;;;;;12.23;10.93;;;13.70;99.90;;;;;;4988864;28;20038;-85
2022/09/12 01:12:02;;;;;;;15.38;10.80;;;13.70;99.90;;;;;;4985570;28;20046;-86
2022/09/12 01:14:29;;;;;;;15.60;12.40;;;13.70;99.90;;;;;;4983649;28;20485;-86
2022/09/12 01:16:55;;;;;;;15.57;13.52;;;13.60;99.90;;;;;;4989092;28;20088;-86
2022/09/12 01:19:20;;;;;;;15.35;12.73;;;13.60;99.90;;;;;;4986933;28;20122;-86
2022/09/12 01:22:22;;;;;;;14.18;12.38;;;13.60;99.90;;;;;;4968296;28;20054;-85
2022/09/12 01:25:27;;;;;;;13.30;11.90;;;13.60;99.90;;;;;;4987065;28;20042;-85
2022/09/12 01:28:26;;;;;;;14.70;13.05;;;13.60;99.90;;;;;;4962712;28;20069;-85
2022/09/12 01:31:13;;;;;;;14.73;12.30;;;13.60;99.90;;;;;;4983106;28;20503;-85
2022/09/12 01:33:49;;;;;;;17.27;13.98;;;13.50;99.90;;;;;;4982172;28;20043;-86
2022/09/12 01:36:15;;;;;;;15.27;13.50;;;13.50;99.90;;;;;;4983765;28;20046;-85
2022/09/12 01:38:55;;;;;;;15.30;13.57;;;13.60;99.90;;;;;;4988104;28;20043;-86
2022/09/12 01:41:48;;;;;;;15.60;13.77;;;13.60;99.90;;;;;;4965074;28;20387;-85
2022/09/12 01:44:25;;;;;;;16.17;13.95;;;13.50;99.90;;;;;;4983928;28;20050;-84
2022/09/12 01:47:30;;;;;;;15.88;13.85;;;13.50;99.90;;;;;;4989282;28;20398;-85
2022/09/12 01:50:01;;;;;;;18.13;13.18;;;13.50;99.90;;;;;;4984135;28;20534;-85
2022/09/12 01:52:41;;;;;;;16.42;14.35;;;13.50;99.90;;;;;;4971933;28;20461;-85
2022/09/12 01:55:17;;;;;;;15.80;12.93;;;13.50;99.90;;;;;;4982705;28;20073;-86
2022/09/12 01:57:50;;;;;;;14.15;11.60;;;13.50;99.90;;;;;;4977283;28;20068;-85
2022/09/12 02:00:16;;;;;;;12.13;10.90;;;13.40;99.90;;;;;;4988622;28;20104;-85
2022/09/12 02:02:51;;;;;;;13.13;11.57;;;13.40;99.90;;;;;;4986596;28;20050;-86
2022/09/12 02:05:30;;;;;;;11.23;10.02;;;13.40;99.90;;;;;;4984214;28;20364;-85
2022/09/12 02:08:08;;;;;;;15.77;11.85;;;13.30;99.90;;;;;;4967603;28;20061;-85
2022/09/12 02:10:46;;;;;;;14.98;11.85;;;13.30;99.90;;;;;;4966084;28;20134;-85
2022/09/12 02:13:22;;;;;;;14.90;13.40;;;13.30;99.90;;;;;;4967061;28;20070;-86
2022/09/12 02:15:57;;;;;;;17.55;14.20;;;13.20;99.90;;;;;;4980527;28;20066;-85
2022/09/12 02:18:26;;;;;;;19.90;15.65;;;13.20;99.90;;;;;;4983311;28;20552;-85
2022/09/12 02:20:55;;;;;;;19.65;13.63;;;13.20;99.90;;;;;;4980102;28;20537;-86
2022/09/12 02:23:27;;;;;;;16.48;13.93;;;13.20;99.90;;;;;;4979352;28;20402;-86
2022/09/12 02:25:59;;;;;;;13.15;11.48;;;13.20;99.90;;;;;;4969584;28;20042;-86
2022/09/12 02:28:29;;;;;;;16.45;13.48;;;13.20;99.90;;;;;;4982202;28;20043;-85
2022/09/12 02:31:22;;;;;;;18.00;15.20;;;13.20;99.90;;;;;;4978337;28;20038;-85
2022/09/12 02:34:01;;;;;;;19.38;16.08;;;13.20;99.90;;;;;;4986020;28;20042;-86
2022/09/12 02:36:45;;;;;;;22.25;17.92;;;13.20;99.90;;;;;;4988159;28;20065;-85
2022/09/12 02:39:11;;;;;;;20.73;17.83;;;13.10;99.90;;;;;;4984955;28;20046;-85
2022/09/12 02:41:37;;;;;;;19.50;16.00;;;13.20;99.90;;;;;;4973474;28;20042;-85
2022/09/12 02:44:03;;;;;;;18.30;16.40;;;13.10;99.90;;;;;;4981710;28;20042;-86
2022/09/12 02:46:38;;;;;;;22.83;18.70;;;13.10;99.90;;;;;;4991273;28;20089;-86
2022/09/12 02:49:03;;;;;;;18.30;15.05;;;13.10;99.90;;;;;;4970201;28;20050;-86
2022/09/12 02:51:29;;;;;;;23.02;17.80;;;13.10;99.90;;;;;;4968531;28;20053;-85
2022/09/12 02:53:56;;;;;;;21.75;18.33;;;13.10;99.90;;;;;;4956911;28;20091;-85
2022/09/12 02:56:30;;;;;;;23.40;18.95;;;13.20;99.90;;;;;;4996742;28;20062;-85
2022/09/12 02:58:59;;;;;;;;;;;13.10;99.90;;;;;;4969269;28;20046;-85
2022/09/12 03:02:06;;;;;;;24.17;20.27;;;13.20;99.90;;;;;;4970314;28;19958;-85
2022/09/12 03:04:58;;;;;;;27.00;21.45;;;13.20;99.90;;;;;;4914993;29;20062;-86
2022/09/12 03:07:27;;;;;;;26.85;18.52;;;13.20;99.90;;;;;;4926643;29;20396;-84
2022/09/12 03:10:18;;;;;;;23.77;19.60;;;13.20;99.90;;;;;;4930436;29;20064;-85
2022/09/12 03:13:07;;;;;;;27.90;20.90;;;13.20;99.90;;;;;;4913098;29;20059;-85
2022/09/12 03:15:52;;;;;;;28.77;22.08;;;13.10;99.90;;;;;;4930448;29;20075;-85
2022/09/12 03:18:49;;;;;;;24.58;20.25;;;13.20;99.90;;;;;;4930374;29;20059;-85
2022/09/12 03:21:30;;;;;;;27.90;21.85;;;13.20;99.90;;;;;;4930411;29;20046;-85
2022/09/12 03:24:09;;;;;;;29.00;21.05;;;13.10;99.90;;;;;;4931060;29;20063;-85
2022/09/12 03:26:53;;;;;;;30.17;22.52;;;13.10;99.90;;;;;;4930867;29;20047;-85
2022/09/12 03:29:20;;;;;;;29.85;21.92;;;13.10;99.90;;;;;;4912854;29;20059;-85
2022/09/12 03:31:57;;;;;;;30.73;22.48;;;13.10;99.90;;;;;;4930509;29;20535;-85
2022/09/12 03:34:25;;;;;;;36.15;25.27;;;13.10;99.90;;;;;;4919448;28;20277;-85
2022/09/12 03:36:54;;;;;;;32.67;23.52;;;13.10;99.90;;;;;;4988650;28;20410;-85
2022/09/12 03:39:20;;;;;;;33.17;24.15;;;13.10;99.90;;;;;;4988866;28;20035;-85
2022/09/12 03:41:46;;;;;;;30.25;22.48;;;13.10;99.90;;;;;;4986290;28;20047;-85
2022/09/12 03:44:11;;;;;;;40.40;27.70;;;13.10;99.90;;;;;;4968131;28;20065;-85
2022/09/12 03:46:37;;;;;;;38.00;25.60;;;13.20;99.90;;;;;;4979852;28;20089;-86
2022/09/12 03:49:02;;;;;;;36.55;25.67;;;13.10;99.90;;;;;;4986514;28;20035;-85
2022/09/12 03:51:28;;;;;;;41.13;26.63;;;13.10;99.90;;;;;;4973040;28;20414;-86
2022/09/12 03:53:54;;;;;;;37.70;26.40;;;13.10;99.90;;;;;;4989636;28;20113;-86
2022/09/12 03:56:19;;;;;;;37.28;26.45;;;13.10;99.90;;;;;;4964172;28;20043;-85
2022/09/12 03:58:45;;;;;;;35.00;25.08;;;13.10;99.90;;;;;;4981866;28;20054;-86
2022/09/12 04:01:18;;;;;;;33.47;26.45;;;13.10;99.90;;;;;;4988435;28;20042;-85
2022/09/12 04:03:46;;;;;;;36.63;26.67;;;13.10;99.90;;;;;;4991121;28;20482;-85
2022/09/12 04:06:15;;;;;;;34.28;25.10;;;13.10;99.90;;;;;;4989680;28;20507;-85
2022/09/12 04:08:43;;;;;;;38.60;27.27;;;13.10;99.90;;;;;;4977983;28;20092;-85
2022/09/12 04:11:13;;;;;;;34.72;25.70;;;13.10;99.90;;;;;;4967993;28;20505;-85
2022/09/12 04:13:41;;;;;;;34.55;25.13;;;13.10;99.90;;;;;;4989180;28;20046;-86
2022/09/12 04:16:07;;;;;;;31.48;24.73;;;13.10;99.90;;;;;;4986699;28;20062;-86
2022/09/12 04:18:33;;;;;;;33.20;24.13;;;13.10;99.90;;;;;;4966099;28;20043;-85
2022/09/12 04:21:07;;;;;;;34.50;25.48;;;13.00;99.90;;;;;;4989091;28;20506;-85
2022/09/12 04:23:33;;;;;;;36.83;26.45;;;13.00;99.90;;;;;;4983847;28;20139;-85
2022/09/12 04:26:00;;;;;;;34.22;25.30;;;13.00;99.90;;;;;;4964379;28;20400;-86
2022/09/12 04:28:31;;;;;;;33.08;24.92;;;13.00;99.90;;;;;;4964884;28;20133;-85
2022/09/12 04:31:06;;;;;;;33.08;23.67;;;13.00;99.90;;;;;;4987140;28;20050;-86
2022/09/12 04:33:32;;;;;;;33.72;24.65;;;13.00;99.90;;;;;;4985055;28;20046;-85
2022/09/12 04:36:09;;;;;;;36.60;24.42;;;13.00;99.90;;;;;;4988150;28;20082;-85
2022/09/12 04:38:36;;;;;;;33.30;23.80;;;13.00;99.90;;;;;;4971231;28;20057;-85
2022/09/12 04:41:23;;;;;;;31.83;24.08;;;13.00;99.90;;;;;;4964881;28;20053;-85
2022/09/12 04:43:54;;;;;;;32.50;24.55;;;13.00;99.90;;;;;;4971441;28;20046;-85
2022/09/12 04:46:20;;;;;;;35.42;24.63;;;13.00;99.90;;;;;;4987667;28;20491;-85
2022/09/12 04:48:47;;;;;;;39.85;23.95;;;12.90;99.90;;;;;;4987553;28;20112;-85
2022/09/12 04:51:21;;;;;;;37.28;24.38;;;12.90;99.90;;;;;;4984477;28;20402;-85
2022/09/12 04:53:49;;;;;;;35.75;24.70;;;12.90;99.90;;;;;;4986763;28;20392;-85
2022/09/12 04:56:14;;;;;;;32.13;23.58;;;12.90;99.90;;;;;;4953632;28;20410;-85
2022/09/12 04:58:40;;;;;;;32.40;24.90;;;12.90;99.90;;;;;;4966709;28;20042;-85
2022/09/12 05:01:11;;;;;;;35.00;25.30;;;12.90;99.90;;;;;;4985621;28;20054;-85
2022/09/12 05:03:38;;;;;;;37.10;26.23;;;13.00;99.90;;;;;;4982519;28;20053;-85
2022/09/12 05:06:13;;;;;;;38.15;25.92;;;13.00;99.90;;;;;;4976826;28;20060;-86
2022/09/12 05:08:38;;;;;;;36.17;26.17;;;13.00;99.90;;;;;;4981766;28;20152;-85
2022/09/12 05:11:16;;;;;;;38.78;26.08;;;13.10;99.90;;;;;;4987810;28;20101;-86
2022/09/12 05:13:41;;;;;;;37.80;27.23;;;13.10;99.90;;;;;;4958911;28;20043;-89
2022/09/12 05:16:09;;;;;;;40.15;28.23;;;13.20;99.90;;;;;;4969886;28;20062;-86
2022/09/12 05:18:35;;;;;;;36.72;27.13;;;13.30;99.90;;;;;;4969308;28;20479;-88
2022/09/12 05:21:03;;;;;;;40.42;28.00;;;13.30;99.90;;;;;;4989150;28;20065;-85
2022/09/12 05:23:29;;;;;;;37.05;25.77;;;13.40;99.90;;;;;;4970860;28;20442;-85
2022/09/12 05:25:57;;;;;;;37.58;26.20;;;13.40;99.90;;;;;;4984152;28;20120;-85
2022/09/12 05:28:27;;;;;;;32.53;23.08;;;13.50;99.90;;;;;;4982850;28;20477;-85
2022/09/12 05:31:04;;;;;;;39.20;27.60;;;13.40;99.90;;;;;;4983756;28;20046;-86
2022/09/12 05:33:34;;;;;;;39.95;26.75;;;13.60;99.90;;;;;;4986599;28;20104;-85
2022/09/12 05:35:59;;;;;;;39.70;27.50;;;13.60;99.90;;;;;;4983302;28;20061;-85
2022/09/12 05:38:27;;;;;;;36.92;26.77;;;13.70;99.90;;;;;;4988576;28;20386;-84
2022/09/12 05:41:08;;;;;;;38.30;26.77;;;13.70;99.90;;;;;;4983914;28;20774;-84
2022/09/12 05:43:36;;;;;;;37.20;26.23;;;13.80;99.90;;;;;;4986908;28;20053;-85
2022/09/12 05:46:09;;;;;;;38.60;27.73;;;13.80;99.90;;;;;;4987364;28;20188;-85
2022/09/12 05:48:40;;;;;;;36.17;26.30;;;13.80;99.90;;;;;;4987035;28;20040;-85
2022/09/12 05:51:09;;;;;;;35.45;24.88;;;13.90;99.90;;;;;;4982484;28;20096;-85
2022/09/12 05:53:38;;;;;;;37.78;26.27;;;13.90;99.90;;;;;;4981387;28;20046;-85
2022/09/12 05:56:06;;;;;;;38.40;26.48;;;13.90;99.90;;;;;;4968291;28;20450;-84
2022/09/12 05:58:32;;;;;;;39.17;26.42;;;14.00;99.90;;;;;;4962753;28;20108;-84
2022/09/12 06:01:02;;;;;;;37.65;26.98;;;14.00;99.90;;;;;;4983937;28;20042;-84
2022/09/12 06:03:28;;;;;;;36.80;25.63;;;14.00;99.90;;;;;;4983935;28;20043;-85
2022/09/12 06:05:54;;;;;;;38.92;26.52;;;14.00;99.90;;;;;;4980410;28;20384;-85
2022/09/12 06:08:19;;;;;;;37.50;27.52;;;14.10;99.90;;;;;;4983053;28;20054;-85
2022/09/12 06:10:45;;;;;;;35.55;24.67;;;14.10;99.90;;;;;;4984513;28;20158;-85
2022/09/12 06:13:10;;;;;;;40.60;26.65;;;14.10;99.90;;;;;;4976748;28;20038;-85
2022/09/12 06:15:36;;;;;;;37.25;26.25;;;14.10;99.90;;;;;;4962665;28;20065;-85
2022/09/12 06:18:02;;;;;;;40.83;27.73;;;14.10;99.90;;;;;;4962947;28;20057;-86
2022/09/12 06:20:27;;;;;;;39.90;27.15;;;14.20;99.90;;;;;;4981056;28;20042;-85
2022/09/12 06:22:53;;;;;;;47.53;30.15;;;14.20;99.90;;;;;;4982093;28;20054;-85
2022/09/12 06:25:19;;;;;;;41.42;28.95;;;14.20;99.90;;;;;;4969839;28;20058;-87
2022/09/12 06:27:46;;;;;;;43.28;29.45;;;14.30;99.90;;;;;;4964466;28;20050;-86
2022/09/12 06:30:12;;;;;;;45.22;30.70;;;14.30;99.90;;;;;;4990832;28;20055;-86
2022/09/12 06:32:37;;;;;;;47.20;32.65;;;14.40;99.90;;;;;;4985558;28;20038;-86
2022/09/12 06:35:04;;;;;;;45.70;30.83;;;14.40;99.90;;;;;;4985411;28;20073;-85
2022/09/12 06:37:30;;;;;;;47.20;32.08;;;14.50;99.90;;;;;;4990458;28;20046;-85
2022/09/12 06:39:56;;;;;;;48.65;32.15;;;14.60;99.90;;;;;;4983923;28;20500;-85
2022/09/12 06:42:21;;;;;;;45.67;32.70;;;14.60;99.90;;;;;;4986435;28;20043;-85
2022/09/12 06:44:47;;;;;;;46.17;31.02;;;14.60;99.90;;;;;;4981790;28;20042;-87
2022/09/12 06:47:13;;;;;;;49.95;32.60;;;14.60;99.90;;;;;;4987900;28;20045;-84
2022/09/12 06:49:38;;;;;;;46.40;30.67;;;14.70;99.90;;;;;;4968901;28;20437;-84
2022/09/12 06:52:06;;;;;;;42.53;28.50;;;14.70;99.90;;;;;;4983444;28;20141;-85
2022/09/12 06:54:31;;;;;;;44.47;30.27;;;14.70;99.90;;;;;;4988447;28;20066;-85
2022/09/12 06:56:57;;;;;;;47.13;31.75;;;14.80;99.90;;;;;;4980546;28;20081;-85
2022/09/12 06:59:22;;;;;;;46.55;32.15;;;14.80;99.90;;;;;;4985518;28;20101;-87
2022/09/12 07:01:49;;;;;;;46.22;30.90;;;14.80;99.90;;;;;;4988492;28;20088;-85
2022/09/12 07:04:15;;;;;;;49.78;32.63;;;14.90;99.90;;;;;;4990468;28;20042;-85
2022/09/12 07:06:42;;;;;;;43.00;29.85;;;14.90;99.90;;;;;;4989266;28;20049;-87
2022/09/12 07:09:11;;;;;;;45.30;30.88;;;15.00;99.90;;;;;;4982581;28;20046;-87
2022/09/12 07:11:38;;;;;;;50.97;31.50;;;15.00;99.90;;;;;;4953572;28;20129;-86
2022/09/12 07:14:06;;;;;;;50.50;31.48;;;15.10;99.90;;;;;;4991248;28;20046;-87
2022/09/12 07:16:34;;;;;;;44.67;31.20;;;15.10;99.90;;;;;;4970992;28;20077;-85
2022/09/12 07:19:01;;;;;;;48.15;32.53;;;15.10;99.90;;;;;;4987053;28;20046;-85
2022/09/12 07:21:28;;;;;;;47.92;31.92;;;15.10;99.90;;;;;;4989767;28;20050;-86
2022/09/12 07:23:56;;;;;;;53.45;33.15;;;15.10;99.90;;;;;;4990287;28;20050;-85
2022/09/12 07:26:23;;;;;;;49.00;31.00;;;15.20;99.90;;;;;;4953495;28;20121;-84
2022/09/12 07:28:53;;;;;;;45.90;31.05;;;15.20;99.90;;;;;;4985575;28;20050;-85
2022/09/12 07:31:21;;;;;;;44.53;30.85;;;15.30;99.90;;;;;;4989075;28;20042;-85
2022/09/12 07:33:49;;;;;;;44.53;28.35;;;15.40;99.90;;;;;;4986041;28;20053;-86
2022/09/12 07:36:16;;;;;;;47.45;31.67;;;15.40;99.90;;;;;;4963568;28;20499;-85
2022/09/12 07:38:42;;;;;;;47.65;30.17;;;15.60;99.90;;;;;;4987515;28;20053;-85
2022/09/12 07:41:22;;;;;;;44.75;30.35;;;15.60;99.90;;;;;;4986555;28;20050;-85
2022/09/12 07:43:52;;;;;;;43.30;29.52;;;15.70;99.90;;;;;;4952159;28;20042;-88
2022/09/12 07:46:17;;;;;;;46.78;29.40;;;15.80;99.90;;;;;;4987340;28;20487;-87
2022/09/12 07:48:44;;;;;;;46.35;29.85;;;15.90;99.90;;;;;;4987640;28;20100;-86
2022/09/12 07:51:10;;;;;;;47.92;31.10;;;15.90;99.90;;;;;;4988025;28;20042;-87
2022/09/12 07:53:39;;;;;;;41.25;27.95;;;16.00;99.90;;;;;;4987361;28;20054;-85
2022/09/12 07:56:06;;;;;;;47.40;30.05;;;16.10;99.90;;;;;;4971878;28;20379;-86
2022/09/12 07:58:35;;;;;;;41.33;26.95;;;16.10;99.90;;;;;;4989761;28;20038;-87
2022/09/12 08:01:07;;;;;;;43.28;26.48;;;16.20;99.90;;;;;;4967562;28;20050;-86
2022/09/12 08:03:34;;;;;;;42.83;27.20;;;16.20;99.90;;;;;;4986089;28;20101;-86
2022/09/12 08:06:19;;;;;;;37.53;25.23;;;16.20;99.90;;;;;;4988544;28;20077;-90
2022/09/12 08:08:45;;;;;;;40.08;26.30;;;16.20;99.90;;;;;;4976311;28;20047;-87
2022/09/12 08:11:13;;;;;;;37.38;25.30;;;16.30;99.90;;;;;;4984599;28;20487;-87
2022/09/12 08:13:40;;;;;;;35.33;23.77;;;16.30;99.90;;;;;;4984202;28;20053;-87
2022/09/12 08:16:11;;;;;;;35.40;24.80;;;16.40;99.90;;;;;;4979483;28;20053;-86
2022/09/12 08:18:38;;;;;;;36.35;24.40;;;16.40;99.90;;;;;;4963061;28;20053;-84
2022/09/12 08:21:25;;;;;;;32.70;23.08;;;16.50;99.90;;;;;;4973926;28;20508;-87
2022/09/12 08:23:53;;;;;;;33.17;22.23;;;16.60;99.90;;;;;;4991740;28;20117;-87
2022/09/12 08:26:19;;;;;;;34.47;22.63;;;16.60;99.90;;;;;;4993904;28;20057;-88
2022/09/12 08:28:45;;;;;;;34.17;23.17;;;16.70;99.90;;;;;;4992874;28;20046;-88
2022/09/12 08:31:13;;;;;;;31.75;21.73;;;16.80;99.90;;;;;;4985056;28;20510;-87
2022/09/12 08:33:39;;;;;;;29.05;21.23;;;16.90;99.90;;;;;;4992174;28;20046;-87
2022/09/12 08:36:08;;;;;;;30.23;21.38;;;17.00;99.90;;;;;;4984644;28;20103;-83
2022/09/12 08:38:35;;;;;;;28.30;20.35;;;17.10;99.90;;;;;;4984798;28;20051;-83
2022/09/12 08:41:27;;;;;;;30.05;19.60;;;17.10;99.90;;;;;;4973295;28;20101;-85
2022/09/12 08:43:58;;;;;;;30.30;20.02;;;17.20;99.90;;;;;;4974860;28;20057;-84
2022/09/12 08:46:48;;;;;;;31.65;21.00;;;17.20;99.90;;;;;;4975138;28;20121;-83
2022/09/12 08:49:43;;;;;;;30.60;19.98;;;17.30;99.90;;;;;;4971628;28;20050;-84
2022/09/12 08:52:29;;;;;;;29.38;20.15;;;17.30;99.90;;;;;;4964729;28;20059;-85
2022/09/12 08:54:55;;;;;;;31.73;20.20;;;17.40;99.90;;;;;;4986838;28;20134;-84
2022/09/12 08:57:22;;;;;;;31.38;20.55;;;17.50;99.90;;;;;;4989333;28;20494;-84
2022/09/12 08:59:49;;;;;;;32.10;21.02;;;17.50;99.90;;;;;;4987608;28;20605;-85
2022/09/12 09:02:33;;;;;;;32.58;21.95;;;17.60;99.90;;;;;;4987749;28;20112;-84
2022/09/12 09:05:07;;;;;;;31.37;20.20;;;17.70;99.90;;;;;;4984686;28;20528;-85
2022/09/12 09:07:54;;;;;;;;;;;17.70;99.90;;;;;;4961170;28;20053;-84
2022/09/12 09:10:37;;;;;;;30.75;19.92;;;17.70;99.90;;;;;;4979571;28;20440;-85
2022/09/12 09:16:38;;;;;;;28.95;20.30;;;17.90;99.90;;;;;;4960498;28;20538;-85
2022/09/12 09:19:12;;;;;;;32.72;20.90;;;18.00;99.90;;;;;;4964578;28;20057;-85
2022/09/12 09:21:51;;;;;;;28.45;20.35;;;18.10;99.90;;;;;;4965604;28;20038;-85
2022/09/12 09:24:23;;;;;;;31.52;20.20;;;18.20;99.90;;;;;;4963759;28;20490;-85
2022/09/12 09:27:10;;;;;;;27.15;19.95;;;18.20;99.90;;;;;;4983374;28;20058;-85
2022/09/12 09:29:40;;;;;;;33.90;22.38;;;18.30;99.90;;;;;;4986183;28;20038;-86
2022/09/12 09:32:24;;;;;;;32.22;22.35;;;18.50;99.90;;;;;;4986919;28;20049;-85
2022/09/12 09:34:51;;;;;;;31.55;21.73;;;18.50;99.90;;;;;;4982777;28;20046;-86
2022/09/12 09:37:42;;;;;;;32.65;22.60;;;18.50;99.90;;;;;;4988239;28;20046;-86
2022/09/12 09:40:26;;;;;;;35.70;23.45;;;18.90;99.90;;;;;;4986173;28;20046;-85
2022/09/12 09:43:09;;;;;;;38.17;24.05;;;18.50;99.90;;;;;;4977439;28;20481;-85
2022/09/12 09:45:36;;;;;;;34.92;23.00;;;18.80;99.90;;;;;;4977160;28;20063;-86
2022/09/12 09:48:18;;;;;;;34.25;23.88;;;18.90;99.90;;;;;;4985645;28;20371;-86
2022/09/12 09:50:45;;;;;;;34.58;23.63;;;19.00;99.90;;;;;;4984638;28;20429;-86
2022/09/12 09:53:35;;;;;;;38.10;24.67;;;19.00;99.90;;;;;;4985442;28;20042;-85
2022/09/12 09:56:07;;;;;;;34.20;23.98;;;19.10;99.90;;;;;;4988337;28;20145;-84
2022/09/12 09:58:34;;;;;;;40.17;25.65;;;19.20;99.90;;;;;;4989095;28;20046;-85
2022/09/12 10:01:03;;;;;;;37.22;24.42;;;19.30;99.90;;;;;;4991945;28;20078;-85
2022/09/12 10:03:30;;;;;;;38.47;25.58;;;19.40;99.90;;;;;;4989653;28;20046;-84
2022/09/12 10:06:06;;;;;;;36.33;23.88;;;19.50;99.90;;;;;;4966092;28;20046;-84
2022/09/12 10:08:35;;;;;;;39.85;26.13;;;19.60;99.90;;;;;;4981651;28;20491;-84
2022/09/12 10:11:06;;;;;;;35.65;23.73;;;19.70;99.90;;;;;;4986114;28;20043;-85
2022/09/12 10:13:41;;;;;;;41.53;24.92;;;19.90;99.90;;;;;;4956043;28;20467;-84
2022/09/12 10:16:28;;;;;;;35.85;23.98;;;20.00;99.90;;;;;;4970409;28;20054;-85
2022/09/12 10:19:00;;;;;;;35.35;23.83;;;20.20;99.90;;;;;;4991044;28;20046;-84
2022/09/12 10:21:34;;;;;;;34.75;22.60;;;20.30;99.90;;;;;;4991939;28;20041;-84
2022/09/12 10:24:11;;;;;;;37.20;23.20;;;20.50;99.90;;;;;;4963905;28;20057;-84
2022/09/12 10:26:39;;;;;;;35.78;20.45;;;20.70;99.90;;;;;;4990536;28;20097;-85
2022/09/12 10:29:17;;;;;;;33.97;21.48;;;20.90;99.90;;;;;;4975276;28;20060;-85
2022/09/12 10:31:56;;;;;;;34.25;22.67;;;20.90;99.90;;;;;;4983011;28;20096;-85
2022/09/12 10:34:30;;;;;;;31.95;21.52;;;21.10;99.90;;;;;;4986714;28;20081;-86
2022/09/12 10:37:07;;;;;;;34.75;20.83;;;21.20;99.90;;;;;;4988522;28;20486;-86
2022/09/12 10:39:35;;;;;;;37.88;22.52;;;21.20;99.90;;;;;;4982650;28;20483;-86
2022/09/12 10:42:02;;;;;;;33.33;22.45;;;21.30;99.90;;;;;;4971201;28;20957;-84
2022/09/12 10:44:33;;;;;;;35.28;21.35;;;21.30;99.90;;;;;;4989839;28;20046;-83
2022/09/12 10:47:18;;;;;;;29.23;20.25;;;21.30;99.90;;;;;;4991774;28;20050;-85
2022/09/12 10:49:43;;;;;;;29.55;19.48;;;21.30;99.90;;;;;;4968818;28;20064;-85
2022/09/12 10:52:22;;;;;;;27.65;18.80;;;21.30;99.90;;;;;;4991487;28;20046;-85
2022/09/12 10:54:49;;;;;;;30.90;18.73;;;21.40;99.90;;;;;;4991639;28;20089;-86
2022/09/12 10:57:43;;;;;;;32.03;18.17;;;21.50;99.90;;;;;;4983722;28;20050;-87
2022/09/12 11:00:16;;;;;;;25.88;16.30;;;21.60;99.90;;;;;;4971745;28;20270;-86
2022/09/12 11:02:49;;;;;;;31.27;18.63;;;21.70;99.90;;;;;;4966997;28;20172;-85
2022/09/12 11:05:31;;;;;;;29.25;19.92;;;21.90;99.90;;;;;;4982378;28;20045;-86
2022/09/12 11:08:11;;;;;;;29.33;18.35;;;22.00;99.90;;;;;;4991020;28;20062;-86
2022/09/12 11:10:44;;;;;;;25.48;17.00;;;22.10;99.90;;;;;;4983930;28;20065;-86
2022/09/12 11:13:29;;;;;;;32.57;18.77;;;22.30;99.90;;;;;;4972877;28;20125;-86
2022/09/12 11:15:59;;;;;;;;;;;22.40;99.90;;;;;;4978544;28;20557;-85
2022/09/12 11:18:52;;;;;;;24.30;16.27;;;22.50;99.90;;;;;;4981816;28;20190;-86
2022/09/12 11:21:40;;;;;;;22.70;15.00;;;22.60;99.90;;;;;;4964668;28;20082;-86
2022/09/12 11:24:37;;;;;;;18.30;13.35;;;22.70;99.90;;;;;;4968382;28;20039;-86
2022/09/12 11:27:13;;;;;;;17.10;12.60;;;22.80;99.90;;;;;;4988882;28;20049;-86
2022/09/12 11:30:00;;;;;;;17.80;11.40;;;23.00;99.90;;;;;;4988704;28;20093;-86
2022/09/12 11:32:44;;;;;;;16.23;10.48;;;23.10;99.90;;;;;;4982458;28;20376;-86
2022/09/12 11:35:26;;;;;;;16.13;10.90;;;23.20;99.90;;;;;;4988204;28;20069;-86
2022/09/12 11:38:29;;;;;;;16.17;9.55;;;23.20;99.90;;;;;;4990452;28;20078;-86
2022/09/12 11:40:59;;;;;;;17.42;11.57;;;23.20;99.90;;;;;;4988777;28;20086;-86
2022/09/12 11:43:33;;;;;;;15.25;10.40;;;23.40;99.90;;;;;;4990048;28;20121;-86
2022/09/12 11:46:22;;;;;;;15.15;10.25;;;23.50;99.90;;;;;;4986404;28;20046;-86
2022/09/12 11:49:05;;;;;;;16.08;10.60;;;23.60;99.90;;;;;;4988015;28;20059;-86
2022/09/12 11:51:39;;;;;;;14.82;9.65;;;23.60;99.90;;;;;;4990155;28;20041;-85
2022/09/12 11:54:21;;;;;;;18.33;10.00;;;23.60;99.90;;;;;;4990247;28;20038;-86
2022/09/12 11:56:52;;;;;;;14.80;11.30;;;23.70;99.90;;;;;;4986897;28;20050;-86
2022/09/12 11:59:43;;;;;;;16.35;12.05;;;23.70;99.90;;;;;;4985922;28;20034;-86
2022/09/12 12:02:22;;;;;;;14.85;11.40;;;23.80;99.90;;;;;;4975675;28;20062;-86
2022/09/12 12:05:00;;;;;;;17.65;11.02;;;23.80;99.90;;;;;;4976500;28;20051;-86
2022/09/12 12:07:41;;;;;;;18.55;9.35;;;23.90;99.90;;;;;;4985179;28;20038;-86
2022/09/12 12:10:46;;;;;;;13.30;9.77;;;23.90;99.90;;;;;;4988526;28;20130;-91
2022/09/12 12:13:22;;;;;;;16.75;9.70;;;23.90;99.70;;;;;;4966464;28;20054;-86
2022/09/12 12:15:52;;;;;;;15.05;10.40;;;23.90;99.90;;;;;;4983990;28;20186;-86
2022/09/12 12:18:24;;;;;;;18.92;10.85;;;23.90;99.90;;;;;;4987164;28;20123;-89
2022/09/12 12:20:50;;;;;;;13.77;9.63;;;23.90;99.90;;;;;;4986166;28;20045;-88
2022/09/12 12:23:34;;;;;;;13.38;8.25;;;24.10;99.90;;;;;;4978815;28;20039;-88
2022/09/12 12:26:01;;;;;;;11.05;7.43;;;24.20;99.90;;;;;;4986535;28;20053;-86
2022/09/12 12:28:49;;;;;;;10.77;6.57;;;24.20;99.30;;;;;;4969970;28;20058;-87
2022/09/12 12:31:15;;;;;;;13.40;8.13;;;24.40;99.10;;;;;;4968205;28;20061;-90
2022/09/12 12:33:44;;;;;;;12.13;8.32;;;24.40;99.20;;;;;;4968562;28;20053;-91
2022/09/12 12:36:32;;;;;;;14.43;9.35;;;24.40;99.20;;;;;;4954597;28;20136;-89
2022/09/12 12:38:58;;;;;;;12.15;8.95;;;24.50;99.20;;;;;;4983448;28;20168;-89
2022/09/12 12:41:24;;;;;;;18.40;11.43;;;24.60;99.10;;;;;;4981835;28;20125;-88
2022/09/12 12:43:55;;;;;;;13.77;9.60;;;24.70;98.10;;;;;;4982311;28;20483;-86
2022/09/12 12:46:26;;;;;;;17.70;9.43;;;24.70;97.50;;;;;;4970010;28;20065;-86
2022/09/12 12:49:00;;;;;;;15.90;9.25;;;24.70;97.60;;;;;;4968304;28;20387;-86
2022/09/12 12:51:55;;;;;;;14.02;9.10;;;24.70;97.80;;;;;;4986993;28;20398;-86
2022/09/12 12:54:26;;;;;;;;;;;24.60;97.00;;;;;;4982398;28;20046;-86
2022/09/12 12:57:23;;;;;;;13.27;9.50;;;24.50;97.10;;;;;;4987304;28;19972;-86
2022/09/12 13:00:03;;;;;;;13.65;9.15;;;24.40;97.90;;;;;;4896094;29;20052;-86